Skip Navigation LinksHome page > Weather > Current weather Skip Navigation Links

Current Weather

Heathrow, London

For information only: do not use for flight planning or navigation.
Latest weather
Observation time Friday, September 30, 2016 8:50 AM BST
Local time Friday, September 30, 2016 9:25 AM BST
Flight conditions Visual Meteorological Conditions
Winds
Wind direction Southwest (230°)
Wind speed 8 mph
Visibility 6.2 mi.
Sky condition
Ceiling unlimited
Temperature 55°F
Dewpoint 50°F
Altimeter 29.91 in.Hg
Derived measurements
Relative humidity 82%
Density altitude -55 ft.
Remarks
Fully automated report.
No significant changes expected in the next two hours.
METAR EGLL 300750Z AUTO 23007KT 9999 NCD 13/10 Q1013 NOSIG

Settings

Location code

InnerDrive.Weather 4.0.5722.1 Release CLR 4.0.30319.34209
Copyright ©2015 Inner Drive Technology. All rights reserved. Portions Copyright ©1986-2015 David Braverman.

Find weather

Site navigation


Skip Navigation Links

Place info

Page info

PayPal - The safer, easier way to pay online!

Return home.

Copyright ©2016 Inner Drive Technology. Purveyors of fine, hand-crafted computer software. Page printed 2016-09-30T08:25:40 UTC.